Time;durP1;ratioP1;P1;durP2;ratioP2;P2;SDS_P1;SDS_P2;PMS_P1;PMS_P2;Temp;Humidity;BMP_temperature;BMP_pressure;BME280_temperature;BME280_humidity;BME280_pressure;Samples;Min_cycle;Max_cycle;Signal;HPM_P1;HPM_P2
2021/03/26 00:00:19;;;;;;;;;;;;;;;6.90;68.60;101352.75;1623195;86;20326;-76
2021/03/26 00:03:08;;;;;;;;;;;;;;;6.89;68.54;101358.73;1613355;86;20692;-76
2021/03/26 00:05:59;;;;;;;;;;;;;;;6.88;68.61;101361.73;1623746;86;20286;-76
2021/03/26 00:08:44;;;;;;;;;;;;;;;6.92;68.71;101358.34;1630558;86;20324;-76
2021/03/26 00:11:30;;;;;;;;;;;;;;;6.95;68.73;101360.09;1634533;86;20431;-76
2021/03/26 00:14:14;;;;;;;;;;;;;;;7.00;68.74;101366.14;1618498;86;20653;-76
2021/03/26 00:16:59;;;;;;;;;;;;;;;7.01;68.74;101365.30;1623416;86;20303;-77
2021/03/26 00:19:44;;;;;;;;;;;;;;;7.01;68.70;101362.73;1635320;87;20297;-76
2021/03/26 00:22:28;;;;;;;;;;;;;;;6.98;68.61;101371.27;1609089;86;20641;-76
2021/03/26 00:25:13;;;;;;;;;;;;;;;6.90;68.62;101365.18;1619686;86;20312;-76
2021/03/26 00:27:58;;;;;;;;;;;;;;;6.86;68.77;101362.14;1600024;87;20295;-76
2021/03/26 00:30:43;;;;;;;;;;;;;;;6.84;68.81;101367.69;1581351;88;21221;-76
2021/03/26 00:33:28;;;;;;;;;;;;;;;6.80;68.81;101363.35;1549693;91;20304;-77
2021/03/26 00:36:12;;;;;;;;;;;;;;;6.78;68.83;101357.75;1583104;88;20339;-76
2021/03/26 00:38:57;;;;;;;;;;;;;;;6.72;68.79;101356.43;1582444;88;20308;-76
2021/03/26 00:41:42;;;;;;;;;;;;;;;6.64;68.79;101349.91;1589519;88;20677;-76
2021/03/26 00:44:26;;;;;;;;;;;;;;;6.59;68.90;101348.99;1583476;88;21198;-76
2021/03/26 00:47:11;;;;;;;;;;;;;;;6.51;68.78;101348.91;1582055;88;601313;-76
2021/03/26 00:49:56;;;;;;;;;;;;;;;6.44;68.94;101348.38;1591072;88;20309;-76
2021/03/26 00:52:41;;;;;;;;;;;;;;;6.40;68.96;101350.89;1586614;88;20599;-76
2021/03/26 00:55:25;;;;;;;;;;;;;;;6.31;68.89;101354.20;1601281;88;20307;-76
2021/03/26 00:58:11;;;;;;;;;;;;;;;6.23;69.07;101346.84;1577289;88;20303;-76
2021/03/26 01:00:56;;;;;;;;;;;;;;;6.19;69.12;101348.52;1570346;88;20515;-76
2021/03/26 01:03:41;;;;;;;;;;;;;;;6.14;69.11;101339.02;1590548;88;20337;-76
2021/03/26 01:06:26;;;;;;;;;;;;;;;6.07;69.18;101341.92;1594678;88;20298;-76
2021/03/26 01:09:10;;;;;;;;;;;;;;;6.01;69.18;101338.41;1589562;88;20310;-76
2021/03/26 01:11:55;;;;;;;;;;;;;;;5.94;69.23;101335.75;1591077;88;20598;-76
2021/03/26 01:14:40;;;;;;;;;;;;;;;5.90;69.36;101341.67;1576363;88;20615;-78
2021/03/26 01:17:25;;;;;;;;;;;;;;;5.87;69.37;101339.45;1594112;88;20312;-77
2021/03/26 01:20:13;;;;;;;;;;;;;;;5.82;69.28;101337.23;1599714;88;20309;-77
2021/03/26 01:22:58;;;;;;;;;;;;;;;5.77;69.35;101336.30;1585809;88;20286;-77
2021/03/26 01:25:43;;;;;;;;;;;;;;;5.76;69.45;101337.14;1568544;88;20331;-77
2021/03/26 01:28:28;;;;;;;;;;;;;;;5.76;69.33;101340.57;1604969;87;20445;-77
2021/03/26 01:31:13;;;;;;;;;;;;;;;5.74;69.46;101333.27;1604040;87;20593;-77
2021/03/26 01:33:58;;;;;;;;;;;;;;;5.74;69.51;101338.82;1604036;87;20282;-77
2021/03/26 01:36:42;;;;;;;;;;;;;;;5.75;69.46;101340.12;1585418;87;1982652;-77
2021/03/26 01:39:26;;;;;;;;;;;;;;;5.74;69.50;101337.12;1594363;87;20284;-77
2021/03/26 01:42:26;;;;;;;;;;;;;;;5.75;69.39;101336.70;1607031;88;20331;-77
2021/03/26 01:45:18;;;;;;;;;;;;;;;5.75;69.48;101340.55;1622306;88;20216;-76
2021/03/26 01:48:04;;;;;;;;;;;;;;;5.71;69.50;101334.95;1628248;87;20311;-76
2021/03/26 01:50:48;;;;;;;;;;;;;;;5.70;69.42;101338.36;1607091;88;20314;-76
2021/03/26 01:53:33;;;;;;;;;;;;;;;5.64;69.45;101342.56;1612968;87;21386;-76
2021/03/26 01:56:17;;;;;;;;;;;;;;;5.63;69.58;101349.81;1622889;87;20270;-76
2021/03/26 01:59:03;;;;;;;;;;;;;;;5.65;69.66;101345.98;1615825;87;20521;-77
2021/03/26 02:01:51;;;;;;;;;;;;;;;5.65;69.59;101351.98;1618646;88;20307;-76
2021/03/26 02:04:39;;;;;;;;;;;;;;;5.59;69.58;101350.59;1612049;87;20310;-76
2021/03/26 02:07:24;;;;;;;;;;;;;;;5.58;69.56;101341.59;1611724;87;20302;-77
2021/03/26 02:10:09;;;;;;;;;;;;;;;5.53;69.54;101347.94;1608431;88;20309;-77
2021/03/26 02:13:00;;;;;;;;;;;;;;;5.46;69.60;101347.39;1616350;88;20406;-76
2021/03/26 02:15:46;;;;;;;;;;;;;;;5.40;69.66;101356.68;1622356;88;20302;-76
2021/03/26 02:18:34;;;;;;;;;;;;;;;5.31;69.74;101350.55;1613302;87;20396;-77
2021/03/26 02:21:30;;;;;;;;;;;;;;;5.25;69.74;101351.73;1618046;88;21249;-77
2021/03/26 02:24:15;;;;;;;;;;;;;;;5.23;69.93;101355.11;1625912;87;20231;-77
2021/03/26 02:27:03;;;;;;;;;;;;;;;5.21;69.84;101351.65;1621212;87;20322;-77
2021/03/26 02:29:47;;;;;;;;;;;;;;;5.19;70.07;101345.25;1617416;88;20310;-77
2021/03/26 02:32:38;;;;;;;;;;;;;;;5.18;70.04;101354.19;1624188;88;20322;-77
2021/03/26 02:35:31;;;;;;;;;;;;;;;5.19;70.18;101344.38;1614728;88;20291;-77
2021/03/26 02:38:28;;;;;;;;;;;;;;;5.18;70.08;101353.77;1616718;88;20322;-77
2021/03/26 02:41:28;;;;;;;;;;;;;;;5.17;70.18;101355.03;1614046;88;20314;-77
2021/03/26 02:44:28;;;;;;;;;;;;;;;5.15;70.17;101351.58;1617790;88;20692;-77
2021/03/26 02:47:37;;;;;;;;;;;;;;;5.13;70.33;101349.40;1619739;88;20397;-76
2021/03/26 02:50:37;;;;;;;;;;;;;;;5.14;70.46;101348.56;1619870;88;20315;-76
2021/03/26 02:53:28;;;;;;;;;;;;;;;5.17;70.47;101348.20;1618925;88;20283;-76
2021/03/26 02:56:19;;;;;;;;;;;;;;;5.18;70.48;101347.36;1545803;91;20299;-76
2021/03/26 02:59:07;;;;;;;;;;;;;;;5.18;70.56;101340.95;1546633;91;20316;-76
2021/03/26 03:01:53;;;;;;;;;;;;;;;5.18;70.59;101340.95;1551331;91;20307;-76
2021/03/26 03:04:43;;;;;;;;;;;;;;;5.15;70.51;101343.88;1595211;88;20320;-76
2021/03/26 03:07:32;;;;;;;;;;;;;;;5.15;70.60;101339.62;1589313;88;20380;-76
2021/03/26 03:10:35;;;;;;;;;;;;;;;5.17;70.55;101340.92;1587981;88;20322;-76
2021/03/26 03:13:44;;;;;;;;;;;;;;;5.16;70.58;101338.78;1596228;88;20343;-77
2021/03/26 03:16:41;;;;;;;;;;;;;;;5.18;70.51;101343.52;1562518;90;20306;-76
2021/03/26 03:19:46;;;;;;;;;;;;;;;5.17;70.55;101344.77;1571016;90;20327;-77
2021/03/26 03:22:33;;;;;;;;;;;;;;;5.19;70.63;101345.66;1480238;94;20454;-77
2021/03/26 03:25:21;;;;;;;;;;;;;;;5.21;70.67;101342.26;1479154;95;20329;-76
2021/03/26 03:28:12;;;;;;;;;;;;;;;5.25;70.69;101336.34;1490113;94;20751;-76
2021/03/26 03:31:03;;;;;;;;;;;;;;;5.28;70.67;101335.12;1498307;94;20372;-77
2021/03/26 03:33:51;;;;;;;;;;;;;;;5.29;70.66;101332.13;1549957;90;21261;-77
2021/03/26 03:36:54;;;;;;;;;;;;;;;5.28;70.61;101339.38;1584550;89;20336;-77
2021/03/26 03:39:57;;;;;;;;;;;;;;;5.27;70.66;101335.95;1586678;89;20349;-77
2021/03/26 03:42:48;;;;;;;;;;;;;;;5.25;70.60;101335.06;1583459;89;20355;-76
2021/03/26 03:45:42;;;;;;;;;;;;;;;5.18;70.57;101336.25;1546513;91;20310;-76
2021/03/26 03:48:45;;;;;;;;;;;;;;;5.15;70.68;101335.77;1512492;91;20620;-77
2021/03/26 03:51:39;;;;;;;;;;;;;;;5.10;70.66;101339.09;1505547;93;20349;-77
2021/03/26 03:54:45;;;;;;;;;;;;;;;5.04;70.66;101339.84;1556443;91;20322;-77
2021/03/26 03:57:32;;;;;;;;;;;;;;;4.97;70.65;101343.13;1554693;91;20492;-77
2021/03/26 04:00:25;;;;;;;;;;;;;;;4.87;70.59;101340.81;1578818;88;20359;-77
2021/03/26 04:03:16;;;;;;;;;;;;;;;4.80;70.66;101338.10;1596653;89;20379;-77
2021/03/26 04:06:07;;;;;;;;;;;;;;;4.72;70.73;101339.23;1595610;88;20318;-77
2021/03/26 04:08:57;;;;;;;;;;;;;;;4.65;70.77;101343.41;1606073;88;20323;-77
2021/03/26 04:11:48;;;;;;;;;;;;;;;4.57;70.73;101345.37;1593719;88;20410;-77
2021/03/26 04:14:39;;;;;;;;;;;;;;;4.50;70.75;101347.35;1593793;88;20345;-77
2021/03/26 04:17:30;;;;;;;;;;;;;;;4.40;70.72;101346.30;1596437;88;20333;-77
2021/03/26 04:20:18;;;;;;;;;;;;;;;4.34;70.87;101344.89;1591825;88;20328;-77
2021/03/26 04:23:19;;;;;;;;;;;;;;;4.27;70.80;101350.30;1626477;86;20297;-77
2021/03/26 04:26:15;;;;;;;;;;;;;;;4.21;70.78;101351.86;1643687;86;20300;-77
2021/03/26 04:29:24;;;;;;;;;;;;;;;4.12;70.77;101351.69;1623203;87;20556;-77
2021/03/26 04:32:13;;;;;;;;;;;;;;;4.03;70.77;101351.06;1634172;86;21189;-76
2021/03/26 04:34:58;;;;;;;;;;;;;;;3.96;70.85;101348.78;1632481;87;20276;-77
2021/03/26 04:37:52;;;;;;;;;;;;;;;3.91;70.81;101350.79;1624441;87;20414;-77
2021/03/26 04:40:40;;;;;;;;;;;;;;;3.85;70.97;101351.51;1630882;87;20219;-77
2021/03/26 04:43:34;;;;;;;;;;;;;;;3.80;71.00;101356.07;1634536;87;20309;-77
2021/03/26 04:46:22;;;;;;;;;;;;;;;3.80;71.13;101359.49;1632551;87;20437;-77
2021/03/26 04:49:37;;;;;;;;;;;;;;;3.81;71.08;101357.38;1632148;86;20546;-77
2021/03/26 04:52:37;;;;;;;;;;;;;;;3.81;70.94;101359.08;1632055;87;20222;-77
2021/03/26 04:55:28;;;;;;;;;;;;;;;3.79;71.12;101360.32;1633256;87;20290;-76
2021/03/26 04:58:16;;;;;;;;;;;;;;;3.81;71.07;101361.63;1632889;87;20334;-76
2021/03/26 05:01:04;;;;;;;;;;;;;;;3.82;71.22;101356.55;1617854;86;20357;-77
2021/03/26 05:03:58;;;;;;;;;;;;;;;3.84;71.26;101355.31;1628893;87;20274;-77
2021/03/26 05:06:46;;;;;;;;;;;;;;;3.88;71.25;101363.51;1628086;87;20309;-77
2021/03/26 05:09:33;;;;;;;;;;;;;;;3.93;71.30;101367.04;1625096;87;20301;-77
2021/03/26 05:12:21;;;;;;;;;;;;;;;3.96;71.31;101366.69;1634168;87;20594;-77
2021/03/26 05:15:08;;;;;;;;;;;;;;;4.01;71.31;101367.21;1626968;86;20353;-77
2021/03/26 05:18:03;;;;;;;;;;;;;;;4.04;71.30;101365.59;1629399;87;20231;-77
2021/03/26 05:21:07;;;;;;;;;;;;;;;4.04;71.30;101359.61;1631567;86;20285;-76
2021/03/26 05:24:01;;;;;;;;;;;;;;;4.06;71.25;101363.06;1630763;87;20320;-77
2021/03/26 05:26:46;;;;;;;;;;;;;;;4.06;71.31;101362.65;1629028;87;20293;-77
2021/03/26 05:29:30;;;;;;;;;;;;;;;4.07;71.29;101356.70;1612154;87;20296;-77
2021/03/26 05:32:22;;;;;;;;;;;;;;;4.11;71.38;101362.75;1624321;87;20330;-77
2021/03/26 05:35:25;;;;;;;;;;;;;;;4.16;71.53;101365.00;1623983;88;20308;-77
2021/03/26 05:38:33;;;;;;;;;;;;;;;4.21;71.44;101364.66;1620368;87;20314;-77
2021/03/26 05:41:42;;;;;;;;;;;;;;;4.25;71.40;101369.02;1626066;86;20302;-77
2021/03/26 05:44:46;;;;;;;;;;;;;;;4.27;71.43;101370.77;1576810;89;20320;-76
2021/03/26 05:47:34;;;;;;;;;;;;;;;4.35;71.56;101373.91;1625478;86;20278;-75
2021/03/26 05:50:31;;;;;;;;;;;;;;;4.45;71.61;101373.28;1614880;86;20293;-75
2021/03/26 05:53:30;;;;;;;;;;;;;;;4.55;71.70;101372.64;1600608;87;20586;-72
2021/03/26 05:56:37;;;;;;;;;;;;;;;4.67;71.77;101377.16;1641135;85;20301;-72
2021/03/26 05:59:25;;;;;;;;;;;;;;;4.78;71.78;101370.52;1615637;87;20648;-72
2021/03/26 06:02:39;;;;;;;;;;;;;;;4.92;71.85;101380.62;1644290;85;20564;-72
2021/03/26 06:05:36;;;;;;;;;;;;;;;5.04;71.93;101383.41;1642604;85;20531;-72
2021/03/26 06:08:33;;;;;;;;;;;;;;;5.21;71.96;101383.70;1599967;87;20666;-72
2021/03/26 06:11:50;;;;;;;;;;;;;;;5.36;72.04;101381.83;1647303;85;20943;-72
2021/03/26 06:14:47;;;;;;;;;;;;;;;5.51;72.03;101379.11;1649878;85;21171;-73
2021/03/26 06:17:51;;;;;;;;;;;;;;;5.62;71.99;101374.16;1619647;86;20308;-72
2021/03/26 06:21:03;;;;;;;;;;;;;;;5.84;72.18;101381.33;1622301;86;20301;-72
2021/03/26 06:24:09;;;;;;;;;;;;;;;6.13;72.31;101380.52;1625436;86;20339;-72
2021/03/26 06:27:11;;;;;;;;;;;;;;;6.50;72.40;101381.86;1613032;86;20347;-72
2021/03/26 06:30:15;;;;;;;;;;;;;;;6.89;72.41;101371.59;1622743;85;20311;-72
2021/03/26 06:33:15;;;;;;;;;;;;;;;7.33;72.46;101373.31;1640417;85;20531;-72
2021/03/26 06:36:21;;;;;;;;;;;;;;;7.75;72.35;101377.97;1662287;86;20295;-72
2021/03/26 06:39:24;;;;;;;;;;;;;;;8.14;72.23;101372.20;1651934;84;20335;-72
2021/03/26 06:42:37;;;;;;;;;;;;;;;8.60;72.34;101379.77;1657274;85;20315;-73
2021/03/26 06:45:45;;;;;;;;;;;;;;;9.10;72.25;101378.19;1660653;84;20421;-72
2021/03/26 06:48:39;;;;;;;;;;;;;;;9.43;71.82;101378.21;1640839;84;20263;-76
2021/03/26 06:51:30;;;;;;;;;;;;;;;9.54;71.56;101382.95;1652703;84;20371;-76
2021/03/26 06:54:34;;;;;;;;;;;;;;;9.56;71.47;101381.66;1658088;84;20315;-76
2021/03/26 06:57:34;;;;;;;;;;;;;;;9.55;71.41;101386.40;1661936;84;20952;-76
2021/03/26 07:00:49;;;;;;;;;;;;;;;9.59;71.50;101386.41;1662191;86;20303;-76
2021/03/26 07:03:52;;;;;;;;;;;;;;;9.72;71.54;101386.41;1660428;84;20339;-76
2021/03/26 07:07:12;;;;;;;;;;;;;;;9.83;71.62;101389.84;1654343;84;20307;-76
2021/03/26 07:10:37;;;;;;;;;;;;;;;9.96;71.52;101384.64;1658984;84;20302;-76
2021/03/26 07:13:25;;;;;;;;;;;;;;;10.11;71.39;101391.52;1654283;84;20306;-76
2021/03/26 07:16:19;;;;;;;;;;;;;;;10.30;71.56;101394.09;1664765;84;20335;-76
2021/03/26 07:19:43;;;;;;;;;;;;;;;10.43;71.26;101394.03;1662994;84;20291;-76
2021/03/26 07:22:56;;;;;;;;;;;;;;;10.57;71.42;101390.11;1653101;84;20325;-77
2021/03/26 07:26:04;;;;;;;;;;;;;;;10.78;71.33;101386.58;1660083;84;20354;-76
2021/03/26 07:29:28;;;;;;;;;;;;;;;11.01;71.21;101392.91;1661129;84;21039;-76
2021/03/26 07:32:34;;;;;;;;;;;;;;;11.23;71.28;101392.78;1656418;85;20416;-77
2021/03/26 07:35:42;;;;;;;;;;;;;;;11.50;71.01;101390.84;1654959;85;20363;-76
2021/03/26 07:38:37;;;;;;;;;;;;;;;11.67;70.89;101388.99;1653037;85;20319;-77
2021/03/26 07:42:00;;;;;;;;;;;;;;;11.87;70.93;101387.13;1655053;86;20299;-77
2021/03/26 07:45:07;;;;;;;;;;;;;;;12.10;70.96;101389.47;1650625;85;20416;-76
2021/03/26 07:48:04;;;;;;;;;;;;;;;12.39;70.82;101392.20;1653528;85;20305;-76
2021/03/26 07:51:09;;;;;;;;;;;;;;;12.62;70.73;101392.78;1653472;85;20300;-77
2021/03/26 07:54:15;;;;;;;;;;;;;;;12.81;70.59;101402.50;1653001;85;20299;-77
2021/03/26 07:57:19;;;;;;;;;;;;;;;13.03;70.73;101395.26;1654880;85;20248;-77
2021/03/26 08:00:19;;;;;;;;;;;;;;;13.28;70.58;101394.52;1650766;85;20389;-76
2021/03/26 08:03:27;;;;;;;;;;;;;;;13.45;70.32;101393.39;1653303;85;20294;-76
2021/03/26 08:06:28;;;;;;;;;;;;;;;13.63;70.38;101400.45;1648457;85;20316;-78
2021/03/26 08:09:22;;;;;;;;;;;;;;;13.77;70.20;101396.74;1663424;85;20240;-76
2021/03/26 08:12:15;;;;;;;;;;;;;;;13.90;70.27;101395.66;1663462;85;20368;-76
2021/03/26 08:15:09;;;;;;;;;;;;;;;13.96;70.07;101394.69;1669408;85;20312;-75
2021/03/26 08:18:22;;;;;;;;;;;;;;;14.05;70.00;101396.23;1655672;85;20651;-75
2021/03/26 08:21:43;;;;;;;;;;;;;;;14.15;69.93;101398.65;1650058;85;20287;-76
2021/03/26 08:25:05;;;;;;;;;;;;;;;14.20;70.12;101392.92;1668557;85;20277;-76
2021/03/26 08:28:10;;;;;;;;;;;;;;;14.18;69.96;101394.70;1662792;85;20308;-76
2021/03/26 08:31:14;;;;;;;;;;;;;;;14.13;70.07;101393.92;1655895;86;20339;-76
2021/03/26 08:34:02;;;;;;;;;;;;;;;14.00;69.92;101396.80;1656577;85;20265;-77
2021/03/26 08:36:56;;;;;;;;;;;;;;;13.91;69.98;101397.37;1653076;85;20679;-77
2021/03/26 08:39:47;;;;;;;;;;;;;;;13.88;70.10;101402.63;1658483;85;20300;-75
2021/03/26 08:42:37;;;;;;;;;;;;;;;13.88;69.92;101397.86;1655527;85;20307;-76
2021/03/26 08:45:31;;;;;;;;;;;;;;;13.93;70.05;101395.19;1653945;85;20395;-76
2021/03/26 08:48:25;;;;;;;;;;;;;;;14.02;69.96;101400.23;1656308;86;21180;-76
2021/03/26 08:51:19;;;;;;;;;;;;;;;14.12;69.93;101397.41;1637572;85;20343;-78
2021/03/26 08:54:26;;;;;;;;;;;;;;;14.29;69.84;101398.40;1654138;86;20586;-76
2021/03/26 09:16:11;;;;;;;89.37;55.98;;;;;;;15.56;70.06;101396.53;1765722;80;22045;-75
2021/03/26 09:19:07;;;;;;;88.50;51.45;;;;;;;15.54;69.50;101397.02;1783613;78;21209;-77
2021/03/26 09:22:00;;;;;;;97.90;52.95;;;;;;;15.51;69.50;101398.39;1781787;78;21043;-77
2021/03/26 09:25:05;;;;;;;92.42;54.05;;;;;;;15.52;69.22;101395.75;1715102;81;21002;-77
2021/03/26 09:28:09;;;;;;;79.10;45.48;;;;;;;15.50;69.15;101397.53;1717175;82;21901;-76
2021/03/26 09:31:26;;;;;;;79.65;45.17;;;;;;;15.48;69.08;101401.92;1743606;80;20992;-76
2021/03/26 09:34:25;;;;;;;84.87;46.30;;;;;;;15.47;68.75;101400.66;1743549;80;20981;-76
2021/03/26 09:37:30;;;;;;;79.60;44.08;;;;;;;15.40;68.57;101397.78;1745112;80;21020;-76
2021/03/26 09:40:33;;;;;;;78.07;44.38;;;;;;;15.37;68.51;101397.85;1703674;82;21015;-76
2021/03/26 09:43:50;;;;;;;80.45;44.00;;;;;;;15.35;68.41;101397.03;1715157;82;20987;-76
2021/03/26 09:46:55;;;;;;;83.70;44.90;;;;;;;15.36;68.33;101397.45;1773116;79;21123;-76
2021/03/26 09:49:48;;;;;;;79.55;43.85;;;;;;;15.38;68.03;101395.21;1773941;80;21102;-76
2021/03/26 09:52:44;;;;;;;71.10;38.90;;;;;;;15.34;67.87;101397.92;1778940;79;21174;-77
2021/03/26 09:55:36;;;;;;;77.32;42.10;;;;;;;15.30;67.94;101393.23;1777307;80;21188;-76
2021/03/26 09:58:35;;;;;;;76.65;41.85;;;;;;;15.35;67.68;101393.13;1754762;80;21091;-76
2021/03/26 10:01:31;;;;;;;76.00;40.48;;;;;;;15.33;67.57;101394.46;1775679;79;21424;-77
2021/03/26 10:04:23;;;;;;;72.95;38.67;;;;;;;15.35;67.53;101395.28;1744858;78;21118;-76
2021/03/26 10:07:30;;;;;;;77.37;41.90;;;;;;;15.34;67.42;101390.96;1784629;78;21722;-76
2021/03/26 10:13:22;;;;;;;70.40;37.28;;;;;;;15.26;67.12;101390.73;1780746;78;21213;-77
2021/03/26 10:16:10;;;;;;;66.10;35.40;;;;;;;15.27;67.08;101391.99;1760083;81;21251;-76
2021/03/26 10:19:03;;;;;;;72.62;36.73;;;;;;;15.27;66.87;101385.48;1749872;81;21606;-76
2021/03/26 10:21:58;;;;;;;72.67;37.90;;;;;;;15.23;66.43;101383.84;1753957;81;21424;-76
2021/03/26 10:24:45;;;;;;;62.00;34.98;;;;;;;15.13;66.48;101381.88;1755990;81;21724;-76
2021/03/26 10:27:35;;;;;;;75.12;39.10;;;;;;;15.15;66.55;101380.55;1738465;81;21109;-76
2021/03/26 10:30:36;;;;;;;71.53;39.08;;;;;;;15.18;66.48;101376.57;1757535;79;21544;-76
2021/03/26 10:33:22;;;;;;;65.32;35.25;;;;;;;15.24;66.28;101379.89;1754640;80;21401;-76
2021/03/26 10:36:22;;;;;;;69.70;35.98;;;;;;;15.32;66.39;101373.20;1757929;81;21455;-76
2021/03/26 10:39:10;;;;;;;69.12;36.68;;;;;;;15.42;66.28;101376.45;1756698;80;22350;-76
2021/03/26 10:42:42;;;;;;;71.02;36.42;;;;;;;15.48;66.10;101369.34;1742158;81;21624;-75
2021/03/26 10:46:04;;;;;;;62.10;32.48;;;;;;;15.55;65.91;101366.14;1744237;81;21227;-77
2021/03/26 10:49:10;;;;;;;68.72;35.65;;;;;;;15.66;65.93;101361.97;1743794;81;21083;-76
2021/03/26 10:52:13;;;;;;;56.35;31.73;;;;;;;15.76;65.58;101359.09;1745670;81;21237;-76
2021/03/26 10:55:05;;;;;;;56.45;32.08;;;;;;;15.84;65.46;101353.23;1741842;81;21243;-76
2021/03/26 10:58:02;;;;;;;54.15;30.77;;;;;;;15.92;65.45;101358.25;1748918;81;21215;-76
2021/03/26 11:01:03;;;;;;;53.55;30.72;;;;;;;15.99;65.35;101361.56;1745469;81;21251;-76
2021/03/26 11:04:09;;;;;;;55.73;30.12;;;;;;;16.11;65.13;101356.02;1749257;81;21231;-76
2021/03/26 11:07:11;;;;;;;61.95;32.98;;;;;;;16.18;64.99;101357.08;1738711;81;21627;-76
2021/03/26 11:10:01;;;;;;;46.02;26.35;;;;;;;16.24;64.85;101350.84;1745352;81;21229;-76
2021/03/26 11:12:54;;;;;;;49.67;28.30;;;;;;;16.32;64.79;101347.57;1739631;81;21639;-76
2021/03/26 11:15:47;;;;;;;51.60;27.80;;;;;;;16.41;64.58;101346.45;1760610;79;21808;-75
2021/03/26 11:18:49;;;;;;;54.58;28.20;;;;;;;16.46;64.45;101344.12;1708976;81;21226;-76
2021/03/26 11:21:42;;;;;;;50.25;26.80;;;;;;;16.53;64.40;101344.36;1689612;83;21719;-76
2021/03/26 11:24:40;;;;;;;42.83;25.80;;;;;;;16.59;64.22;101339.86;1751261;80;21603;-76
2021/03/26 11:27:36;;;;;;;49.08;28.75;;;;;;;16.66;64.22;101338.33;1745540;80;21253;-75
2021/03/26 11:30:37;;;;;;;52.60;28.25;;;;;;;16.76;64.13;101341.52;1749608;80;21848;-76
2021/03/26 11:33:45;;;;;;;49.95;28.15;;;;;;;16.80;63.93;101332.69;1745273;80;22309;-76
2021/03/26 11:36:50;;;;;;;46.05;26.02;;;;;;;16.91;63.99;101328.45;1744722;80;21234;-76
2021/03/26 11:40:00;;;;;;;41.77;25.72;;;;;;;16.99;63.64;101325.16;1747594;80;21261;-77
2021/03/26 11:43:01;;;;;;;50.58;29.12;;;;;;;17.03;63.52;101324.16;1723780;80;21225;-76
2021/03/26 11:46:10;;;;;;;48.00;26.40;;;;;;;17.04;63.39;101323.25;1744190;80;21241;-76
2021/03/26 11:49:02;;;;;;;51.80;26.10;;;;;;;17.08;63.29;101319.19;1746296;80;21128;-76
2021/03/26 11:51:58;;;;;;;50.33;28.73;;;;;;;17.07;63.23;101314.86;1751909;80;21497;-76
2021/03/26 11:54:50;;;;;;;52.73;24.55;;;;;;;17.11;63.14;101317.78;1746236;80;21122;-76
2021/03/26 11:58:03;;;;;;;43.23;25.92;;;;;;;17.14;62.94;101312.46;1755486;78;21546;-76
2021/03/26 12:00:57;;;;;;;55.10;29.98;;;;;;;17.15;62.95;101318.09;1741312;81;21253;-76
2021/03/26 12:04:02;;;;;;;48.48;28.67;;;;;;;17.17;62.68;101304.94;1729080;80;21206;-76
2021/03/26 12:07:03;;;;;;;54.75;28.38;;;;;;;17.15;62.88;101302.86;1724902;81;21214;-76
2021/03/26 12:10:02;;;;;;;44.83;25.68;;;;;;;17.17;62.66;101298.41;1739820;81;21201;-77
2021/03/26 12:12:51;;;;;;;49.45;28.40;;;;;;;17.21;62.63;101291.73;1745804;81;21586;-77
2021/03/26 12:15:41;;;;;;;47.70;26.15;;;;;;;17.20;62.32;101286.09;1744827;81;21190;-77
2021/03/26 12:18:32;;;;;;;39.08;22.87;;;;;;;17.17;62.34;101286.65;1739918;80;21194;-75
2021/03/26 12:21:42;;;;;;;42.40;23.15;;;;;;;17.17;62.28;101284.89;1737576;80;21193;-75
2021/03/26 12:25:03;;;;;;;35.43;21.93;;;;;;;17.17;61.99;101278.80;1740599;80;21229;-76
2021/03/26 12:27:52;;;;;;;41.02;24.55;;;;;;;17.14;61.86;101284.16;1744646;81;21201;-76
2021/03/26 12:30:48;;;;;;;31.35;19.80;;;;;;;17.12;61.52;101281.60;1748560;81;21218;-76
2021/03/26 12:33:47;;;;;;;46.02;22.20;;;;;;;17.08;61.65;101283.05;1748519;81;26747;-76
2021/03/26 12:36:46;;;;;;;36.90;20.75;;;;;;;17.07;61.39;101272.20;1718931;83;21538;-75
2021/03/26 12:39:40;;;;;;;38.17;23.42;;;;;;;17.05;61.43;101277.48;1720925;81;21263;-75
2021/03/26 12:42:30;;;;;;;38.17;22.42;;;;;;;17.08;61.40;101270.84;1746609;81;21220;-75
2021/03/26 12:45:23;;;;;;;37.85;23.30;;;;;;;17.16;61.25;101271.42;1746140;81;21643;-77
2021/03/26 12:48:13;;;;;;;45.73;24.20;;;;;;;17.19;61.12;101266.55;1741235;81;21191;-77
2021/03/26 12:51:03;;;;;;;41.83;24.57;;;;;;;17.18;61.08;101267.45;1747546;81;21210;-77
2021/03/26 12:54:02;;;;;;;40.23;23.00;;;;;;;17.19;60.86;101264.78;1748317;81;21498;-76
2021/03/26 12:57:23;;;;;;;36.55;22.00;;;;;;;17.17;60.86;101263.98;1747716;81;21190;-76
2021/03/26 13:00:35;;;;;;;38.75;22.62;;;;;;;17.20;60.82;101256.49;1749003;81;21193;-77
2021/03/26 13:03:41;;;;;;;39.35;23.75;;;;;;;17.24;60.69;101259.41;1739075;81;21173;-76
2021/03/26 13:06:40;;;;;;;39.03;22.20;;;;;;;17.27;60.67;101251.47;1746475;81;21206;-77
2021/03/26 13:09:40;;;;;;;41.65;23.52;;;;;;;17.25;60.44;101255.89;1748332;81;21226;-76
2021/03/26 13:12:35;;;;;;;39.05;23.40;;;;;;;17.14;60.33;101248.44;1701830;82;21210;-76
2021/03/26 13:15:27;;;;;;;42.20;26.12;;;;;;;17.07;60.31;101240.84;1754577;81;21216;-77
2021/03/26 13:18:14;;;;;;;51.50;25.43;;;;;;;17.01;60.20;101237.13;1725060;81;21229;-77
2021/03/26 13:21:19;;;;;;;42.62;24.52;;;;;;;16.95;60.25;101238.62;1708605;82;21008;-77
2021/03/26 13:24:37;;;;;;;44.90;26.95;;;;;;;16.94;60.21;101235.61;1727466;81;21001;-76
2021/03/26 13:27:47;;;;;;;43.83;26.15;;;;;;;16.96;60.09;101236.42;1722737;81;21003;-77
2021/03/26 13:30:52;;;;;;;47.62;30.02;;;;;;;16.91;60.02;101231.34;1727163;81;20993;-77
2021/03/26 13:34:07;;;;;;;56.37;30.97;;;;;;;16.91;60.00;101233.95;1730748;81;21136;-77
2021/03/26 13:37:16;;;;;;;61.05;31.97;;;;;;;16.86;59.71;101234.55;1720447;81;21416;-77
2021/03/26 13:40:17;;;;;;;55.85;29.82;;;;;;;16.78;59.80;101223.49;1732534;81;21446;-77
2021/03/26 13:43:05;;;;;;;52.95;29.20;;;;;;;16.75;59.72;101230.12;1708638;81;21167;-76
2021/03/26 13:45:57;;;;;;;49.83;29.57;;;;;;;16.68;59.47;101225.98;1727933;81;20997;-76
2021/03/26 13:48:43;;;;;;;48.80;30.30;;;;;;;16.64;59.52;101220.42;1721784;82;21137;-75
2021/03/26 13:51:33;;;;;;;48.40;28.80;;;;;;;16.60;59.47;101220.16;1738605;80;21225;-75
2021/03/26 13:54:49;;;;;;;49.10;29.77;;;;;;;16.57;59.27;101221.09;1739565;81;21180;-75
2021/03/26 13:57:37;;;;;;;47.95;30.00;;;;;;;16.54;59.40;101210.75;1642874;85;28332;-74
2021/03/26 14:00:28;;;;;;;50.48;30.10;;;;;;;16.55;59.41;101209.40;1668660;83;21724;-74
2021/03/26 14:03:42;;;;;;;53.60;30.43;;;;;;;16.59;59.36;101214.52;1675346;84;21155;-74
2021/03/26 14:06:47;;;;;;;46.98;30.72;;;;;;;16.61;59.18;101206.20;1636615;84;21308;-74
2021/03/26 14:09:56;;;;;;;50.33;30.37;;;;;;;16.59;58.83;101204.94;1658431;84;21316;-74
2021/03/26 14:12:45;;;;;;;52.10;30.08;;;;;;;16.60;59.13;101211.02;1657871;84;21249;-74
2021/03/26 14:15:31;;;;;;;47.15;29.50;;;;;;;16.59;58.79;101208.00;1663043;84;21860;-74
2021/03/26 14:18:26;;;;;;;50.75;30.70;;;;;;;16.52;58.67;101209.49;1652504;84;21705;-74
2021/03/26 14:22:03;;;;;;;47.50;30.10;;;;;;;16.46;58.72;101204.46;1659304;84;21278;-74
2021/03/26 14:25:26;;;;;;;44.08;29.02;;;;;;;16.39;58.62;101200.33;1616552;87;21246;-75
2021/03/26 14:28:38;;;;;;;48.17;28.45;;;;;;;16.29;58.55;101199.34;1611358;87;22873;-74
2021/03/26 14:31:35;;;;;;;48.92;28.80;;;;;;;16.22;58.62;101195.61;1605703;87;21317;-74
2021/03/26 14:34:28;;;;;;;50.43;30.20;;;;;;;16.18;58.44;101187.92;1593343;87;21207;-74
2021/03/26 14:37:23;;;;;;;52.83;31.68;;;;;;;16.12;58.39;101188.95;1616922;87;21630;-74
2021/03/26 14:40:22;;;;;;;52.38;30.70;;;;;;;16.09;58.30;101189.53;1615998;88;21228;-74
2021/03/26 14:43:11;;;;;;;55.30;30.43;;;;;;;16.08;58.35;101182.61;1617015;87;21288;-74
2021/03/26 14:45:58;;;;;;;49.45;31.73;;;;;;;16.09;58.22;101185.17;1615873;87;21680;-74
2021/03/26 14:49:03;;;;;;;48.20;28.98;;;;;;;16.12;58.21;101187.66;1612276;87;21451;-74
2021/03/26 14:51:59;;;;;;;50.65;30.97;;;;;;;16.18;58.24;101184.01;1616897;88;21268;-74